sensor_id;sensor_type;location;lat;lon;timestamp;temperature;humidity
32506;DHT22;18955;51.224;8.482;2023-07-29T00:02:13;17.00;86.30
32506;DHT22;18955;51.224;8.482;2023-07-29T00:04:39;17.00;86.40
32506;DHT22;18955;51.224;8.482;2023-07-29T00:07:06;17.00;86.40
32506;DHT22;18955;51.224;8.482;2023-07-29T00:09:32;17.00;86.60
32506;DHT22;18955;51.224;8.482;2023-07-29T00:11:58;17.00;86.60
32506;DHT22;18955;51.224;8.482;2023-07-29T00:14:24;16.90;86.70
32506;DHT22;18955;51.224;8.482;2023-07-29T00:16:50;17.00;86.60
32506;DHT22;18955;51.224;8.482;2023-07-29T00:19:17;17.00;86.50
32506;DHT22;18955;51.224;8.482;2023-07-29T00:21:43;17.00;86.50
32506;DHT22;18955;51.224;8.482;2023-07-29T00:24:09;16.90;86.60
32506;DHT22;18955;51.224;8.482;2023-07-29T00:26:35;16.90;86.60
32506;DHT22;18955;51.224;8.482;2023-07-29T00:29:01;16.90;86.60
32506;DHT22;18955;51.224;8.482;2023-07-29T00:31:28;16.90;86.70
32506;DHT22;18955;51.224;8.482;2023-07-29T00:33:54;16.90;86.60
32506;DHT22;18955;51.224;8.482;2023-07-29T00:36:20;16.90;86.50
32506;DHT22;18955;51.224;8.482;2023-07-29T00:38:46;16.90;86.40
32506;DHT22;18955;51.224;8.482;2023-07-29T00:41:13;16.90;86.60
32506;DHT22;18955;51.224;8.482;2023-07-29T00:43:41;16.90;86.80
32506;DHT22;18955;51.224;8.482;2023-07-29T00:46:09;16.90;86.60
32506;DHT22;18955;51.224;8.482;2023-07-29T00:48:36;16.80;86.90
32506;DHT22;18955;51.224;8.482;2023-07-29T00:51:03;16.80;86.90
32506;DHT22;18955;51.224;8.482;2023-07-29T00:53:29;16.80;86.70
32506;DHT22;18955;51.224;8.482;2023-07-29T00:55:55;16.90;86.70
32506;DHT22;18955;51.224;8.482;2023-07-29T00:58:21;16.80;86.60
32506;DHT22;18955;51.224;8.482;2023-07-29T01:00:48;16.80;86.60
32506;DHT22;18955;51.224;8.482;2023-07-29T01:03:14;16.90;86.50
32506;DHT22;18955;51.224;8.482;2023-07-29T01:08:45;16.80;86.60
32506;DHT22;18955;51.224;8.482;2023-07-29T01:14:01;16.80;86.90
32506;DHT22;18955;51.224;8.482;2023-07-29T01:16:46;16.80;86.50
32506;DHT22;18955;51.224;8.482;2023-07-29T01:22:03;16.80;86.30
32506;DHT22;18955;51.224;8.482;2023-07-29T01:24:30;16.80;86.50
32506;DHT22;18955;51.224;8.482;2023-07-29T01:26:56;16.80;86.50
32506;DHT22;18955;51.224;8.482;2023-07-29T01:29:22;16.80;86.50
32506;DHT22;18955;51.224;8.482;2023-07-29T01:31:49;16.80;86.50
32506;DHT22;18955;51.224;8.482;2023-07-29T01:34:33;16.80;87.00
32506;DHT22;18955;51.224;8.482;2023-07-29T01:37:02;16.80;86.30
32506;DHT22;18955;51.224;8.482;2023-07-29T01:39:35;16.80;86.40
32506;DHT22;18955;51.224;8.482;2023-07-29T01:42:03;16.80;86.40
32506;DHT22;18955;51.224;8.482;2023-07-29T01:44:29;16.70;86.40
32506;DHT22;18955;51.224;8.482;2023-07-29T01:46:56;16.70;86.50
32506;DHT22;18955;51.224;8.482;2023-07-29T01:49:22;16.80;86.50
32506;DHT22;18955;51.224;8.482;2023-07-29T01:51:48;16.70;86.40
32506;DHT22;18955;51.224;8.482;2023-07-29T01:54:15;16.70;87.10
32506;DHT22;18955;51.224;8.482;2023-07-29T01:56:41;16.70;86.30
32506;DHT22;18955;51.224;8.482;2023-07-29T01:59:07;16.70;86.40
32506;DHT22;18955;51.224;8.482;2023-07-29T02:01:34;16.70;86.40
32506;DHT22;18955;51.224;8.482;2023-07-29T02:04:00;16.70;86.30
32506;DHT22;18955;51.224;8.482;2023-07-29T02:06:27;16.70;86.40
32506;DHT22;18955;51.224;8.482;2023-07-29T02:08:54;16.70;86.70
32506;DHT22;18955;51.224;8.482;2023-07-29T02:11:20;16.70;86.50
32506;DHT22;18955;51.224;8.482;2023-07-29T02:13:54;16.70;86.50
32506;DHT22;18955;51.224;8.482;2023-07-29T02:16:21;16.70;86.40
32506;DHT22;18955;51.224;8.482;2023-07-29T02:18:48;16.70;86.50
32506;DHT22;18955;51.224;8.482;2023-07-29T02:21:16;16.70;86.90
32506;DHT22;18955;51.224;8.482;2023-07-29T02:23:43;16.70;86.40
32506;DHT22;18955;51.224;8.482;2023-07-29T02:26:09;16.70;86.50
32506;DHT22;18955;51.224;8.482;2023-07-29T02:28:35;16.70;86.40
32506;DHT22;18955;51.224;8.482;2023-07-29T02:31:21;16.70;86.60
32506;DHT22;18955;51.224;8.482;2023-07-29T02:33:48;16.70;86.70
32506;DHT22;18955;51.224;8.482;2023-07-29T02:36:15;16.60;86.40
32506;DHT22;18955;51.224;8.482;2023-07-29T02:38:42;16.60;86.40
32506;DHT22;18955;51.224;8.482;2023-07-29T02:41:10;16.60;86.50
32506;DHT22;18955;51.224;8.482;2023-07-29T02:43:38;16.60;86.70
32506;DHT22;18955;51.224;8.482;2023-07-29T02:46:04;16.60;86.60
32506;DHT22;18955;51.224;8.482;2023-07-29T02:48:31;16.60;86.70
32506;DHT22;18955;51.224;8.482;2023-07-29T02:50:58;16.60;86.70
32506;DHT22;18955;51.224;8.482;2023-07-29T02:53:24;16.60;86.80
32506;DHT22;18955;51.224;8.482;2023-07-29T02:55:51;16.60;86.60
32506;DHT22;18955;51.224;8.482;2023-07-29T02:58:19;16.60;86.50
32506;DHT22;18955;51.224;8.482;2023-07-29T03:00:46;16.60;86.50
32506;DHT22;18955;51.224;8.482;2023-07-29T03:03:14;16.60;86.40
32506;DHT22;18955;51.224;8.482;2023-07-29T03:05:40;16.60;86.50
32506;DHT22;18955;51.224;8.482;2023-07-29T03:08:06;16.60;86.50
32506;DHT22;18955;51.224;8.482;2023-07-29T03:10:35;16.60;86.70
32506;DHT22;18955;51.224;8.482;2023-07-29T03:13:02;16.60;87.10
32506;DHT22;18955;51.224;8.482;2023-07-29T03:15:28;16.60;86.70
32506;DHT22;18955;51.224;8.482;2023-07-29T03:17:54;16.60;86.50
32506;DHT22;18955;51.224;8.482;2023-07-29T03:20:21;16.60;86.70
32506;DHT22;18955;51.224;8.482;2023-07-29T03:22:47;16.60;86.50
32506;DHT22;18955;51.224;8.482;2023-07-29T03:25:13;16.60;86.60
32506;DHT22;18955;51.224;8.482;2023-07-29T03:27:40;16.60;86.70
32506;DHT22;18955;51.224;8.482;2023-07-29T03:30:06;16.60;86.60
32506;DHT22;18955;51.224;8.482;2023-07-29T03:32:33;16.60;86.80
32506;DHT22;18955;51.224;8.482;2023-07-29T03:34:59;16.60;86.50
32506;DHT22;18955;51.224;8.482;2023-07-29T03:37:26;16.60;86.70
32506;DHT22;18955;51.224;8.482;2023-07-29T03:39:52;16.60;86.60
32506;DHT22;18955;51.224;8.482;2023-07-29T03:42:18;16.60;86.50
32506;DHT22;18955;51.224;8.482;2023-07-29T03:44:44;16.60;86.50
32506;DHT22;18955;51.224;8.482;2023-07-29T03:47:10;16.60;86.60
32506;DHT22;18955;51.224;8.482;2023-07-29T03:49:39;16.60;86.80
32506;DHT22;18955;51.224;8.482;2023-07-29T03:52:06;16.60;86.70
32506;DHT22;18955;51.224;8.482;2023-07-29T03:54:32;16.60;86.60
32506;DHT22;18955;51.224;8.482;2023-07-29T03:56:59;16.60;86.70
32506;DHT22;18955;51.224;8.482;2023-07-29T03:59:25;16.60;86.60
32506;DHT22;18955;51.224;8.482;2023-07-29T04:01:51;16.60;86.50
32506;DHT22;18955;51.224;8.482;2023-07-29T04:04:17;16.60;86.60
32506;DHT22;18955;51.224;8.482;2023-07-29T04:06:43;16.60;86.70
32506;DHT22;18955;51.224;8.482;2023-07-29T04:09:10;16.60;86.60
32506;DHT22;18955;51.224;8.482;2023-07-29T04:11:36;16.60;86.80
32506;DHT22;18955;51.224;8.482;2023-07-29T04:14:03;16.60;86.90
32506;DHT22;18955;51.224;8.482;2023-07-29T04:16:29;16.60;86.80
32506;DHT22;18955;51.224;8.482;2023-07-29T04:18:55;16.60;86.60
32506;DHT22;18955;51.224;8.482;2023-07-29T04:21:21;16.60;86.50
32506;DHT22;18955;51.224;8.482;2023-07-29T04:23:48;16.60;86.50
32506;DHT22;18955;51.224;8.482;2023-07-29T04:26:14;16.60;86.60
32506;DHT22;18955;51.224;8.482;2023-07-29T04:28:40;16.60;86.50
32506;DHT22;18955;51.224;8.482;2023-07-29T04:31:06;16.50;86.60
32506;DHT22;18955;51.224;8.482;2023-07-29T04:33:32;16.50;86.70
32506;DHT22;18955;51.224;8.482;2023-07-29T04:35:59;16.60;87.10
32506;DHT22;18955;51.224;8.482;2023-07-29T04:38:31;16.50;86.70
32506;DHT22;18955;51.224;8.482;2023-07-29T04:40:59;16.50;86.60
32506;DHT22;18955;51.224;8.482;2023-07-29T04:43:31;16.60;86.80
32506;DHT22;18955;51.224;8.482;2023-07-29T04:45:57;16.60;86.60
32506;DHT22;18955;51.224;8.482;2023-07-29T04:48:23;16.50;86.80
32506;DHT22;18955;51.224;8.482;2023-07-29T04:50:49;16.60;86.70
32506;DHT22;18955;51.224;8.482;2023-07-29T04:53:16;16.50;87.00
32506;DHT22;18955;51.224;8.482;2023-07-29T04:55:42;16.60;87.20
32506;DHT22;18955;51.224;8.482;2023-07-29T04:58:09;16.50;87.90
32506;DHT22;18955;51.224;8.482;2023-07-29T05:00:36;16.50;87.70
32506;DHT22;18955;51.224;8.482;2023-07-29T05:03:03;16.50;87.40
32506;DHT22;18955;51.224;8.482;2023-07-29T05:05:29;16.50;87.10
32506;DHT22;18955;51.224;8.482;2023-07-29T05:07:56;16.50;87.00
32506;DHT22;18955;51.224;8.482;2023-07-29T05:10:22;16.50;87.00
32506;DHT22;18955;51.224;8.482;2023-07-29T05:12:49;16.50;87.60
32506;DHT22;18955;51.224;8.482;2023-07-29T05:15:15;16.50;87.60
32506;DHT22;18955;51.224;8.482;2023-07-29T05:17:41;16.50;87.50
32506;DHT22;18955;51.224;8.482;2023-07-29T05:20:08;16.60;88.40
32506;DHT22;18955;51.224;8.482;2023-07-29T05:22:34;16.60;87.20
32506;DHT22;18955;51.224;8.482;2023-07-29T05:25:01;16.50;87.10
32506;DHT22;18955;51.224;8.482;2023-07-29T05:27:27;16.50;87.10
32506;DHT22;18955;51.224;8.482;2023-07-29T05:29:53;16.50;87.10
32506;DHT22;18955;51.224;8.482;2023-07-29T05:32:19;16.60;88.10
32506;DHT22;18955;51.224;8.482;2023-07-29T05:34:45;16.50;88.00
32506;DHT22;18955;51.224;8.482;2023-07-29T05:37:11;16.60;87.30
32506;DHT22;18955;51.224;8.482;2023-07-29T05:39:38;16.60;87.10
32506;DHT22;18955;51.224;8.482;2023-07-29T05:42:04;16.50;87.00
32506;DHT22;18955;51.224;8.482;2023-07-29T05:44:31;16.50;87.00
32506;DHT22;18955;51.224;8.482;2023-07-29T05:46:57;16.50;86.90
32506;DHT22;18955;51.224;8.482;2023-07-29T05:49:23;16.50;86.70
32506;DHT22;18955;51.224;8.482;2023-07-29T05:51:50;16.50;87.80
32506;DHT22;18955;51.224;8.482;2023-07-29T05:54:18;16.50;87.40
32506;DHT22;18955;51.224;8.482;2023-07-29T05:56:45;16.60;87.60
32506;DHT22;18955;51.224;8.482;2023-07-29T05:59:11;16.50;88.00
32506;DHT22;18955;51.224;8.482;2023-07-29T06:01:37;16.50;88.60
32506;DHT22;18955;51.224;8.482;2023-07-29T06:04:04;16.50;87.40
32506;DHT22;18955;51.224;8.482;2023-07-29T06:06:30;16.50;87.20
32506;DHT22;18955;51.224;8.482;2023-07-29T06:08:56;16.50;88.10
32506;DHT22;18955;51.224;8.482;2023-07-29T06:11:22;16.50;87.30
32506;DHT22;18955;51.224;8.482;2023-07-29T06:13:49;16.50;87.10
32506;DHT22;18955;51.224;8.482;2023-07-29T06:16:16;16.50;87.70
32506;DHT22;18955;51.224;8.482;2023-07-29T06:18:42;16.50;87.90
32506;DHT22;18955;51.224;8.482;2023-07-29T06:21:09;16.50;87.90
32506;DHT22;18955;51.224;8.482;2023-07-29T06:23:38;16.50;88.00
32506;DHT22;18955;51.224;8.482;2023-07-29T06:26:05;16.50;87.30
32506;DHT22;18955;51.224;8.482;2023-07-29T06:28:32;16.50;87.60
32506;DHT22;18955;51.224;8.482;2023-07-29T06:30:58;16.60;87.90
32506;DHT22;18955;51.224;8.482;2023-07-29T06:33:25;16.60;88.30
32506;DHT22;18955;51.224;8.482;2023-07-29T06:35:51;16.60;88.20
32506;DHT22;18955;51.224;8.482;2023-07-29T06:38:17;16.60;88.80
32506;DHT22;18955;51.224;8.482;2023-07-29T06:40:50;16.60;88.20
32506;DHT22;18955;51.224;8.482;2023-07-29T06:43:17;16.60;88.00
32506;DHT22;18955;51.224;8.482;2023-07-29T06:45:43;16.60;88.30
32506;DHT22;18955;51.224;8.482;2023-07-29T06:48:09;16.60;88.10
32506;DHT22;18955;51.224;8.482;2023-07-29T06:50:35;16.60;88.00
32506;DHT22;18955;51.224;8.482;2023-07-29T06:53:03;16.60;89.10
32506;DHT22;18955;51.224;8.482;2023-07-29T06:55:29;16.60;88.70
32506;DHT22;18955;51.224;8.482;2023-07-29T06:57:55;16.60;89.10
32506;DHT22;18955;51.224;8.482;2023-07-29T07:00:22;16.60;89.00
32506;DHT22;18955;51.224;8.482;2023-07-29T07:02:48;16.60;88.50
32506;DHT22;18955;51.224;8.482;2023-07-29T07:05:14;16.60;87.80
32506;DHT22;18955;51.224;8.482;2023-07-29T07:07:41;16.60;88.20
32506;DHT22;18955;51.224;8.482;2023-07-29T07:10:07;16.60;88.40
32506;DHT22;18955;51.224;8.482;2023-07-29T07:12:33;16.60;88.70
32506;DHT22;18955;51.224;8.482;2023-07-29T07:15:00;16.60;89.00
32506;DHT22;18955;51.224;8.482;2023-07-29T07:17:27;16.60;89.10
32506;DHT22;18955;51.224;8.482;2023-07-29T07:19:53;16.60;88.80
32506;DHT22;18955;51.224;8.482;2023-07-29T07:22:19;16.60;88.70
32506;DHT22;18955;51.224;8.482;2023-07-29T07:24:45;16.60;88.70
32506;DHT22;18955;51.224;8.482;2023-07-29T07:27:12;16.60;88.40
32506;DHT22;18955;51.224;8.482;2023-07-29T07:29:38;16.60;88.50
32506;DHT22;18955;51.224;8.482;2023-07-29T07:32:04;16.60;89.50
32506;DHT22;18955;51.224;8.482;2023-07-29T07:34:31;16.60;89.10
32506;DHT22;18955;51.224;8.482;2023-07-29T07:36:59;16.60;89.20
32506;DHT22;18955;51.224;8.482;2023-07-29T07:39:26;16.60;89.10
32506;DHT22;18955;51.224;8.482;2023-07-29T07:41:52;16.60;89.70
32506;DHT22;18955;51.224;8.482;2023-07-29T07:44:19;16.60;89.00
32506;DHT22;18955;51.224;8.482;2023-07-29T07:46:45;16.60;88.90
32506;DHT22;18955;51.224;8.482;2023-07-29T07:49:12;16.60;88.70
32506;DHT22;18955;51.224;8.482;2023-07-29T07:51:39;16.60;88.80
32506;DHT22;18955;51.224;8.482;2023-07-29T07:54:05;16.60;89.60
32506;DHT22;18955;51.224;8.482;2023-07-29T07:56:32;16.60;89.10
32506;DHT22;18955;51.224;8.482;2023-07-29T07:58:58;16.60;88.70
32506;DHT22;18955;51.224;8.482;2023-07-29T08:01:25;16.70;88.40
32506;DHT22;18955;51.224;8.482;2023-07-29T08:03:51;16.60;88.10
32506;DHT22;18955;51.224;8.482;2023-07-29T08:06:17;16.60;88.40
32506;DHT22;18955;51.224;8.482;2023-07-29T08:08:44;16.70;88.40
32506;DHT22;18955;51.224;8.482;2023-07-29T08:11:10;16.60;88.30
32506;DHT22;18955;51.224;8.482;2023-07-29T08:13:36;16.70;89.20
32506;DHT22;18955;51.224;8.482;2023-07-29T08:16:03;16.70;89.40
32506;DHT22;18955;51.224;8.482;2023-07-29T08:18:29;16.70;88.90
32506;DHT22;18955;51.224;8.482;2023-07-29T08:20:56;16.70;88.70
32506;DHT22;18955;51.224;8.482;2023-07-29T08:23:33;16.70;89.00
32506;DHT22;18955;51.224;8.482;2023-07-29T08:26:02;16.80;89.30
32506;DHT22;18955;51.224;8.482;2023-07-29T08:28:31;16.80;89.70
32506;DHT22;18955;51.224;8.482;2023-07-29T08:30:58;16.80;89.20
32506;DHT22;18955;51.224;8.482;2023-07-29T08:33:25;16.80;90.20
32506;DHT22;18955;51.224;8.482;2023-07-29T08:35:52;16.80;89.40
32506;DHT22;18955;51.224;8.482;2023-07-29T08:38:18;16.80;89.80
32506;DHT22;18955;51.224;8.482;2023-07-29T08:41:24;16.90;90.00
32506;DHT22;18955;51.224;8.482;2023-07-29T08:44:11;16.90;89.50
32506;DHT22;18955;51.224;8.482;2023-07-29T08:46:39;16.90;89.50
32506;DHT22;18955;51.224;8.482;2023-07-29T08:49:05;17.00;89.80
32506;DHT22;18955;51.224;8.482;2023-07-29T08:51:33;17.00;90.00
32506;DHT22;18955;51.224;8.482;2023-07-29T08:54:00;17.00;90.00
32506;DHT22;18955;51.224;8.482;2023-07-29T08:56:27;17.00;90.00
32506;DHT22;18955;51.224;8.482;2023-07-29T08:58:54;17.10;90.20
32506;DHT22;18955;51.224;8.482;2023-07-29T09:01:20;17.10;90.10
32506;DHT22;18955;51.224;8.482;2023-07-29T09:03:46;17.10;90.10
32506;DHT22;18955;51.224;8.482;2023-07-29T09:06:14;17.10;90.10
32506;DHT22;18955;51.224;8.482;2023-07-29T09:08:40;17.10;90.40
32506;DHT22;18955;51.224;8.482;2023-07-29T09:11:07;17.10;90.20
32506;DHT22;18955;51.224;8.482;2023-07-29T09:13:33;17.10;90.20
32506;DHT22;18955;51.224;8.482;2023-07-29T09:16:00;17.10;90.10
32506;DHT22;18955;51.224;8.482;2023-07-29T09:18:27;17.10;90.10
32506;DHT22;18955;51.224;8.482;2023-07-29T09:20:55;17.20;90.20
32506;DHT22;18955;51.224;8.482;2023-07-29T09:23:24;17.10;90.00
32506;DHT22;18955;51.224;8.482;2023-07-29T09:25:51;17.10;90.00
32506;DHT22;18955;51.224;8.482;2023-07-29T09:28:26;17.10;90.10
32506;DHT22;18955;51.224;8.482;2023-07-29T09:30:53;17.10;90.30
32506;DHT22;18955;51.224;8.482;2023-07-29T09:33:19;17.20;90.30
32506;DHT22;18955;51.224;8.482;2023-07-29T09:35:45;17.20;90.20
32506;DHT22;18955;51.224;8.482;2023-07-29T09:38:14;17.20;90.20
32506;DHT22;18955;51.224;8.482;2023-07-29T09:40:41;17.20;90.10
32506;DHT22;18955;51.224;8.482;2023-07-29T09:43:09;17.20;90.10
32506;DHT22;18955;51.224;8.482;2023-07-29T09:45:36;17.20;90.20
32506;DHT22;18955;51.224;8.482;2023-07-29T09:48:04;17.20;90.20
32506;DHT22;18955;51.224;8.482;2023-07-29T09:50:36;17.20;90.10
32506;DHT22;18955;51.224;8.482;2023-07-29T09:53:03;17.20;90.10
32506;DHT22;18955;51.224;8.482;2023-07-29T09:55:32;17.20;90.10
32506;DHT22;18955;51.224;8.482;2023-07-29T09:58:00;17.30;90.20
32506;DHT22;18955;51.224;8.482;2023-07-29T10:00:28;17.30;90.20
32506;DHT22;18955;51.224;8.482;2023-07-29T10:02:55;17.30;90.30
32506;DHT22;18955;51.224;8.482;2023-07-29T10:05:26;17.30;90.30
32506;DHT22;18955;51.224;8.482;2023-07-29T10:07:54;17.30;90.00
32506;DHT22;18955;51.224;8.482;2023-07-29T10:10:20;17.30;90.00
32506;DHT22;18955;51.224;8.482;2023-07-29T10:12:46;17.30;89.90
32506;DHT22;18955;51.224;8.482;2023-07-29T10:15:13;17.30;89.90
32506;DHT22;18955;51.224;8.482;2023-07-29T10:17:40;17.30;90.00
32506;DHT22;18955;51.224;8.482;2023-07-29T10:20:08;17.40;90.00
32506;DHT22;18955;51.224;8.482;2023-07-29T10:22:42;17.30;89.90
32506;DHT22;18955;51.224;8.482;2023-07-29T10:25:15;17.40;89.80
32506;DHT22;18955;51.224;8.482;2023-07-29T10:27:47;17.40;89.80
32506;DHT22;18955;51.224;8.482;2023-07-29T10:30:13;17.40;89.70
32506;DHT22;18955;51.224;8.482;2023-07-29T10:32:44;17.40;89.50
32506;DHT22;18955;51.224;8.482;2023-07-29T10:35:12;17.40;89.50
32506;DHT22;18955;51.224;8.482;2023-07-29T10:37:39;17.40;89.30
32506;DHT22;18955;51.224;8.482;2023-07-29T10:40:10;17.40;89.20
32506;DHT22;18955;51.224;8.482;2023-07-29T10:42:37;17.40;89.20
32506;DHT22;18955;51.224;8.482;2023-07-29T10:45:22;17.40;89.10
32506;DHT22;18955;51.224;8.482;2023-07-29T10:47:48;17.40;89.00
32506;DHT22;18955;51.224;8.482;2023-07-29T10:50:21;17.40;89.30
32506;DHT22;18955;51.224;8.482;2023-07-29T10:52:52;17.50;89.50
32506;DHT22;18955;51.224;8.482;2023-07-29T10:55:26;17.50;89.50
32506;DHT22;18955;51.224;8.482;2023-07-29T10:57:52;17.50;89.20
32506;DHT22;18955;51.224;8.482;2023-07-29T11:00:30;17.50;89.20
32506;DHT22;18955;51.224;8.482;2023-07-29T11:02:59;17.50;89.20
32506;DHT22;18955;51.224;8.482;2023-07-29T11:05:27;17.50;89.20
32506;DHT22;18955;51.224;8.482;2023-07-29T11:08:23;17.50;89.20
32506;DHT22;18955;51.224;8.482;2023-07-29T11:11:06;17.50;89.10
32506;DHT22;18955;51.224;8.482;2023-07-29T11:13:37;17.50;89.00
32506;DHT22;18955;51.224;8.482;2023-07-29T11:16:04;17.50;88.90
32506;DHT22;18955;51.224;8.482;2023-07-29T11:18:32;17.60;88.80
32506;DHT22;18955;51.224;8.482;2023-07-29T11:21:00;17.50;88.80
32506;DHT22;18955;51.224;8.482;2023-07-29T11:23:34;17.50;88.70
32506;DHT22;18955;51.224;8.482;2023-07-29T11:26:02;17.50;88.70
32506;DHT22;18955;51.224;8.482;2023-07-29T11:28:29;17.50;88.60
32506;DHT22;18955;51.224;8.482;2023-07-29T11:30:56;17.50;88.50
32506;DHT22;18955;51.224;8.482;2023-07-29T11:33:25;17.60;88.70
32506;DHT22;18955;51.224;8.482;2023-07-29T11:35:52;17.60;88.90
32506;DHT22;18955;51.224;8.482;2023-07-29T11:38:20;17.60;88.80
32506;DHT22;18955;51.224;8.482;2023-07-29T11:41:00;17.60;88.80
32506;DHT22;18955;51.224;8.482;2023-07-29T11:43:28;17.60;88.60
32506;DHT22;18955;51.224;8.482;2023-07-29T11:45:55;17.60;88.60
32506;DHT22;18955;51.224;8.482;2023-07-29T11:48:30;17.60;88.50
32506;DHT22;18955;51.224;8.482;2023-07-29T11:50:56;17.60;88.60
32506;DHT22;18955;51.224;8.482;2023-07-29T11:53:25;17.60;88.80
32506;DHT22;18955;51.224;8.482;2023-07-29T11:55:52;17.60;88.70
32506;DHT22;18955;51.224;8.482;2023-07-29T11:58:19;17.70;88.60
32506;DHT22;18955;51.224;8.482;2023-07-29T12:00:46;17.70;88.70
32506;DHT22;18955;51.224;8.482;2023-07-29T12:03:13;17.60;88.70
32506;DHT22;18955;51.224;8.482;2023-07-29T12:05:39;17.70;88.60
32506;DHT22;18955;51.224;8.482;2023-07-29T12:08:08;17.70;88.40
32506;DHT22;18955;51.224;8.482;2023-07-29T12:10:35;17.60;88.30
32506;DHT22;18955;51.224;8.482;2023-07-29T12:13:02;17.70;88.20
32506;DHT22;18955;51.224;8.482;2023-07-29T12:15:29;17.70;88.10
32506;DHT22;18955;51.224;8.482;2023-07-29T12:17:56;17.70;87.70
32506;DHT22;18955;51.224;8.482;2023-07-29T12:20:23;17.70;88.00
32506;DHT22;18955;51.224;8.482;2023-07-29T12:22:53;17.70;88.00
32506;DHT22;18955;51.224;8.482;2023-07-29T12:25:20;17.70;88.00
32506;DHT22;18955;51.224;8.482;2023-07-29T12:27:47;17.70;87.90
32506;DHT22;18955;51.224;8.482;2023-07-29T12:30:13;17.70;87.90
32506;DHT22;18955;51.224;8.482;2023-07-29T12:32:46;17.70;87.90
32506;DHT22;18955;51.224;8.482;2023-07-29T12:35:13;17.70;87.70
32506;DHT22;18955;51.224;8.482;2023-07-29T12:37:39;17.80;87.90
32506;DHT22;18955;51.224;8.482;2023-07-29T12:40:22;17.80;87.80
32506;DHT22;18955;51.224;8.482;2023-07-29T12:42:49;17.70;87.90
32506;DHT22;18955;51.224;8.482;2023-07-29T12:45:17;17.70;87.90
32506;DHT22;18955;51.224;8.482;2023-07-29T12:47:44;17.70;87.80
32506;DHT22;18955;51.224;8.482;2023-07-29T12:50:10;17.80;87.70
32506;DHT22;18955;51.224;8.482;2023-07-29T12:52:37;17.80;87.70
32506;DHT22;18955;51.224;8.482;2023-07-29T12:55:04;17.80;87.70
32506;DHT22;18955;51.224;8.482;2023-07-29T12:57:30;17.80;87.80
32506;DHT22;18955;51.224;8.482;2023-07-29T12:59:56;17.80;87.90
32506;DHT22;18955;51.224;8.482;2023-07-29T13:02:22;17.80;87.90
32506;DHT22;18955;51.224;8.482;2023-07-29T13:04:48;17.80;87.80
32506;DHT22;18955;51.224;8.482;2023-07-29T13:07:14;17.80;87.90
32506;DHT22;18955;51.224;8.482;2023-07-29T13:09:41;17.90;87.80
32506;DHT22;18955;51.224;8.482;2023-07-29T13:12:07;17.80;87.60
32506;DHT22;18955;51.224;8.482;2023-07-29T13:14:33;17.90;87.60
32506;DHT22;18955;51.224;8.482;2023-07-29T13:16:59;17.90;87.60
32506;DHT22;18955;51.224;8.482;2023-07-29T13:19:25;17.90;87.70
32506;DHT22;18955;51.224;8.482;2023-07-29T13:21:52;17.90;87.60
32506;DHT22;18955;51.224;8.482;2023-07-29T13:24:18;17.90;87.60
32506;DHT22;18955;51.224;8.482;2023-07-29T13:26:44;17.90;87.60
32506;DHT22;18955;51.224;8.482;2023-07-29T13:29:10;17.90;87.50
32506;DHT22;18955;51.224;8.482;2023-07-29T13:31:36;17.90;87.60
32506;DHT22;18955;51.224;8.482;2023-07-29T13:34:02;17.90;87.00
32506;DHT22;18955;51.224;8.482;2023-07-29T13:36:28;17.90;87.50
32506;DHT22;18955;51.224;8.482;2023-07-29T13:38:55;17.90;87.50
32506;DHT22;18955;51.224;8.482;2023-07-29T13:41:21;18.00;87.40
32506;DHT22;18955;51.224;8.482;2023-07-29T13:43:47;18.00;87.50
32506;DHT22;18955;51.224;8.482;2023-07-29T13:46:13;18.00;87.40
32506;DHT22;18955;51.224;8.482;2023-07-29T13:48:39;18.00;87.40
32506;DHT22;18955;51.224;8.482;2023-07-29T13:51:05;18.00;87.40
32506;DHT22;18955;51.224;8.482;2023-07-29T13:53:32;18.00;87.30
32506;DHT22;18955;51.224;8.482;2023-07-29T13:55:58;18.00;87.40
32506;DHT22;18955;51.224;8.482;2023-07-29T13:58:24;18.00;87.50
32506;DHT22;18955;51.224;8.482;2023-07-29T14:00:52;18.10;87.30
32506;DHT22;18955;51.224;8.482;2023-07-29T14:03:18;18.10;87.30
32506;DHT22;18955;51.224;8.482;2023-07-29T14:05:44;18.10;87.30
32506;DHT22;18955;51.224;8.482;2023-07-29T14:08:10;18.10;87.20
32506;DHT22;18955;51.224;8.482;2023-07-29T14:10:36;18.20;87.30
32506;DHT22;18955;51.224;8.482;2023-07-29T14:13:03;18.20;86.90
32506;DHT22;18955;51.224;8.482;2023-07-29T14:15:29;18.10;86.90
32506;DHT22;18955;51.224;8.482;2023-07-29T14:17:55;18.20;87.40
32506;DHT22;18955;51.224;8.482;2023-07-29T14:20:21;18.20;86.80
32506;DHT22;18955;51.224;8.482;2023-07-29T14:22:47;18.20;86.80
32506;DHT22;18955;51.224;8.482;2023-07-29T14:25:14;18.20;86.80
32506;DHT22;18955;51.224;8.482;2023-07-29T14:27:40;18.20;86.70
32506;DHT22;18955;51.224;8.482;2023-07-29T14:30:07;18.20;86.50
32506;DHT22;18955;51.224;8.482;2023-07-29T14:32:33;18.20;86.50
32506;DHT22;18955;51.224;8.482;2023-07-29T14:34:59;18.30;86.30
32506;DHT22;18955;51.224;8.482;2023-07-29T14:37:30;18.30;86.00
32506;DHT22;18955;51.224;8.482;2023-07-29T14:39:58;18.40;85.90
32506;DHT22;18955;51.224;8.482;2023-07-29T14:42:24;18.40;85.90
32506;DHT22;18955;51.224;8.482;2023-07-29T14:44:50;18.40;86.00
32506;DHT22;18955;51.224;8.482;2023-07-29T14:47:17;18.40;85.90
32506;DHT22;18955;51.224;8.482;2023-07-29T14:49:44;18.40;85.90
32506;DHT22;18955;51.224;8.482;2023-07-29T14:52:10;18.40;86.00
32506;DHT22;18955;51.224;8.482;2023-07-29T14:54:37;18.40;86.00
32506;DHT22;18955;51.224;8.482;2023-07-29T14:57:06;18.40;85.90
32506;DHT22;18955;51.224;8.482;2023-07-29T14:59:32;18.40;85.70
32506;DHT22;18955;51.224;8.482;2023-07-29T15:01:58;18.40;85.90
32506;DHT22;18955;51.224;8.482;2023-07-29T15:04:24;18.40;85.80
32506;DHT22;18955;51.224;8.482;2023-07-29T15:06:51;18.40;85.70
32506;DHT22;18955;51.224;8.482;2023-07-29T15:09:18;18.50;86.00
32506;DHT22;18955;51.224;8.482;2023-07-29T15:11:44;18.50;85.70
32506;DHT22;18955;51.224;8.482;2023-07-29T15:14:10;18.60;85.60
32506;DHT22;18955;51.224;8.482;2023-07-29T15:16:36;18.60;85.20
32506;DHT22;18955;51.224;8.482;2023-07-29T15:19:04;18.60;85.00
32506;DHT22;18955;51.224;8.482;2023-07-29T15:21:31;18.70;84.80
32506;DHT22;18955;51.224;8.482;2023-07-29T15:23:59;18.70;84.90
32506;DHT22;18955;51.224;8.482;2023-07-29T15:26:25;18.70;84.80
32506;DHT22;18955;51.224;8.482;2023-07-29T15:28:52;18.70;84.80
32506;DHT22;18955;51.224;8.482;2023-07-29T15:31:18;18.80;85.10
32506;DHT22;18955;51.224;8.482;2023-07-29T15:33:44;18.80;85.00
32506;DHT22;18955;51.224;8.482;2023-07-29T15:36:10;18.80;84.60
32506;DHT22;18955;51.224;8.482;2023-07-29T15:38:36;18.80;85.10
32506;DHT22;18955;51.224;8.482;2023-07-29T15:41:02;18.80;85.20